sensor_id;sensor_type;location;lat;lon;timestamp;pressure;altitude;pressure_sealevel;temperature;humidity
28797;BME280;24974;54.444;18.560;2024-03-23T00:55:03;100221.56;;;12.29;59.28
28797;BME280;24974;54.444;18.560;2024-03-23T00:57:34;100219.72;;;11.40;61.08
28797;BME280;24974;54.444;18.560;2024-03-23T01:00:05;100217.88;;;12.76;58.21
28797;BME280;24974;54.444;18.560;2024-03-23T01:02:36;100205.59;;;12.65;58.26
28797;BME280;24974;54.444;18.560;2024-03-23T01:05:07;100202.09;;;12.55;58.68
28797;BME280;24974;54.444;18.560;2024-03-23T01:07:38;100206.34;;;12.23;59.02
28797;BME280;24974;54.444;18.560;2024-03-23T01:10:09;100216.09;;;11.65;61.02
28797;BME280;24974;54.444;18.560;2024-03-23T01:12:40;100208.38;;;12.35;59.15
28797;BME280;24974;54.444;18.560;2024-03-23T01:15:11;100222.53;;;12.25;59.04
28797;BME280;24974;54.444;18.560;2024-03-23T01:17:42;100215.47;;;12.15;59.84
28797;BME280;24974;54.444;18.560;2024-03-23T01:20:13;100218.09;;;11.21;61.93
28797;BME280;24974;54.444;18.560;2024-03-23T01:22:44;100218.84;;;12.21;59.64
28797;BME280;24974;54.444;18.560;2024-03-23T01:25:14;100214.56;;;11.94;60.08
28797;BME280;24974;54.444;18.560;2024-03-23T01:27:45;100204.72;;;11.75;61.01
28797;BME280;24974;54.444;18.560;2024-03-23T01:30:16;100210.72;;;11.86;60.29
28797;BME280;24974;54.444;18.560;2024-03-23T01:32:47;100200.94;;;12.36;59.06
28797;BME280;24974;54.444;18.560;2024-03-23T01:35:18;100198.00;;;11.38;60.88
28797;BME280;24974;54.444;18.560;2024-03-23T01:37:49;100207.28;;;11.98;60.22
28797;BME280;24974;54.444;18.560;2024-03-23T01:40:20;100218.22;;;12.45;58.26
28797;BME280;24974;54.444;18.560;2024-03-23T01:42:57;100215.53;;;12.36;58.92
28797;BME280;24974;54.444;18.560;2024-03-23T01:45:30;100218.63;;;12.26;59.27
28797;BME280;24974;54.444;18.560;2024-03-23T01:48:01;100214.47;;;11.82;59.96
28797;BME280;24974;54.444;18.560;2024-03-23T01:50:33;100218.06;;;11.56;60.51
28797;BME280;24974;54.444;18.560;2024-03-23T01:53:05;100211.53;;;11.69;60.95
28797;BME280;24974;54.444;18.560;2024-03-23T01:55:37;100218.44;;;12.01;60.33
28797;BME280;24974;54.444;18.560;2024-03-23T01:58:11;100218.25;;;12.07;59.78
28797;BME280;24974;54.444;18.560;2024-03-23T02:00:41;100217.28;;;11.30;61.65
28797;BME280;24974;54.444;18.560;2024-03-23T02:03:22;100204.22;;;12.29;59.12
28797;BME280;24974;54.444;18.560;2024-03-23T02:05:54;100207.13;;;11.94;59.57
28797;BME280;24974;54.444;18.560;2024-03-23T02:08:26;100210.19;;;11.20;61.61
28797;BME280;24974;54.444;18.560;2024-03-23T02:10:57;100208.47;;;11.80;59.85
28797;BME280;24974;54.444;18.560;2024-03-23T02:13:29;100206.81;;;11.96;59.54
28797;BME280;24974;54.444;18.560;2024-03-23T02:16:00;100207.81;;;12.21;58.95
28797;BME280;24974;54.444;18.560;2024-03-23T02:18:34;100196.16;;;11.68;59.72
28797;BME280;24974;54.444;18.560;2024-03-23T02:21:05;100198.63;;;11.61;60.28
28797;BME280;24974;54.444;18.560;2024-03-23T02:23:36;100189.34;;;10.93;62.64
28797;BME280;24974;54.444;18.560;2024-03-23T02:26:07;100197.69;;;11.48;60.55
28797;BME280;24974;54.444;18.560;2024-03-23T02:28:38;100195.53;;;11.63;60.17
28797;BME280;24974;54.444;18.560;2024-03-23T02:31:09;100185.78;;;12.21;58.73
28797;BME280;24974;54.444;18.560;2024-03-23T02:33:40;100182.28;;;12.62;57.07
28797;BME280;24974;54.444;18.560;2024-03-23T02:36:11;100174.84;;;12.03;59.50
28797;BME280;24974;54.444;18.560;2024-03-23T02:38:42;100161.97;;;11.78;59.35
28797;BME280;24974;54.444;18.560;2024-03-23T02:41:13;100158.88;;;12.18;58.65
28797;BME280;24974;54.444;18.560;2024-03-23T02:43:44;100160.25;;;12.12;58.94
28797;BME280;24974;54.444;18.560;2024-03-23T02:46:15;100164.06;;;11.90;59.46
28797;BME280;24974;54.444;18.560;2024-03-23T02:48:48;100150.66;;;12.39;58.18
28797;BME280;24974;54.444;18.560;2024-03-23T02:51:19;100149.84;;;11.79;59.81
28797;BME280;24974;54.444;18.560;2024-03-23T02:53:51;100149.97;;;11.91;59.72
28797;BME280;24974;54.444;18.560;2024-03-23T02:56:22;100144.69;;;12.07;58.96
28797;BME280;24974;54.444;18.560;2024-03-23T02:58:53;100141.03;;;11.94;59.32
28797;BME280;24974;54.444;18.560;2024-03-23T03:01:24;100150.81;;;11.74;59.63
28797;BME280;24974;54.444;18.560;2024-03-23T03:03:55;100147.09;;;12.09;58.98
28797;BME280;24974;54.444;18.560;2024-03-23T03:06:26;100139.28;;;12.19;58.88
28797;BME280;24974;54.444;18.560;2024-03-23T03:08:57;100141.97;;;11.60;59.96
28797;BME280;24974;54.444;18.560;2024-03-23T03:11:28;100148.06;;;11.83;59.54
28797;BME280;24974;54.444;18.560;2024-03-23T03:13:59;100148.06;;;11.74;59.50
28797;BME280;24974;54.444;18.560;2024-03-23T03:16:30;100149.03;;;11.32;61.04
28797;BME280;24974;54.444;18.560;2024-03-23T03:19:01;100142.38;;;11.33;60.67
28797;BME280;24974;54.444;18.560;2024-03-23T03:21:32;100146.19;;;12.04;59.38
28797;BME280;24974;54.444;18.560;2024-03-23T03:24:06;100133.72;;;12.28;58.23
28797;BME280;24974;54.444;18.560;2024-03-23T03:26:37;100137.22;;;11.69;60.35
28797;BME280;24974;54.444;18.560;2024-03-23T03:29:08;100130.56;;;11.32;61.10
28797;BME280;24974;54.444;18.560;2024-03-23T03:31:39;100130.00;;;11.56;60.28
28797;BME280;24974;54.444;18.560;2024-03-23T03:34:10;100131.06;;;12.11;58.53
28797;BME280;24974;54.444;18.560;2024-03-23T03:36:41;100132.72;;;11.65;59.78
28797;BME280;24974;54.444;18.560;2024-03-23T03:39:12;100134.97;;;11.25;60.93
28797;BME280;24974;54.444;18.560;2024-03-23T03:41:43;100126.63;;;11.51;60.67
28797;BME280;24974;54.444;18.560;2024-03-23T03:44:14;100129.84;;;11.53;60.64
28797;BME280;24974;54.444;18.560;2024-03-23T03:46:44;100119.56;;;11.32;61.25
28797;BME280;24974;54.444;18.560;2024-03-23T03:49:15;100120.19;;;11.29;61.66
28797;BME280;24974;54.444;18.560;2024-03-23T03:51:46;100117.66;;;11.62;60.57
28797;BME280;24974;54.444;18.560;2024-03-23T03:54:17;100118.03;;;11.52;60.49
28797;BME280;24974;54.444;18.560;2024-03-23T03:56:48;100113.22;;;11.40;60.64
28797;BME280;24974;54.444;18.560;2024-03-23T03:59:19;100110.47;;;11.87;59.41
28797;BME280;24974;54.444;18.560;2024-03-23T04:01:51;100109.06;;;11.26;60.65
28797;BME280;24974;54.444;18.560;2024-03-23T04:04:21;100102.91;;;12.05;59.35
28797;BME280;24974;54.444;18.560;2024-03-23T04:07:00;100107.47;;;12.01;58.52
28797;BME280;24974;54.444;18.560;2024-03-23T04:09:31;100106.13;;;11.69;59.52
28797;BME280;24974;54.444;18.560;2024-03-23T04:12:02;100095.63;;;11.33;60.80
28797;BME280;24974;54.444;18.560;2024-03-23T04:14:33;100095.06;;;11.48;60.24
28797;BME280;24974;54.444;18.560;2024-03-23T04:17:03;100097.28;;;11.16;61.41
28797;BME280;24974;54.444;18.560;2024-03-23T04:19:34;100097.22;;;11.34;61.17
28797;BME280;24974;54.444;18.560;2024-03-23T04:22:05;100098.28;;;11.50;61.28
28797;BME280;24974;54.444;18.560;2024-03-23T04:24:36;100088.53;;;11.14;61.99
28797;BME280;24974;54.444;18.560;2024-03-23T04:27:07;100080.81;;;10.90;62.50
28797;BME280;24974;54.444;18.560;2024-03-23T04:29:38;100081.91;;;11.54;60.81
28797;BME280;24974;54.444;18.560;2024-03-23T04:32:09;100078.53;;;11.86;59.54
28797;BME280;24974;54.444;18.560;2024-03-23T04:34:41;100079.22;;;10.89;62.09
28797;BME280;24974;54.444;18.560;2024-03-23T04:37:12;100088.47;;;11.70;60.45
28797;BME280;24974;54.444;18.560;2024-03-23T04:39:43;100092.19;;;10.54;63.75
28797;BME280;24974;54.444;18.560;2024-03-23T04:42:17;100085.88;;;10.54;63.84
28797;BME280;24974;54.444;18.560;2024-03-23T04:44:48;100080.28;;;11.23;61.76
28797;BME280;24974;54.444;18.560;2024-03-23T04:47:19;100078.78;;;11.72;60.32
28797;BME280;24974;54.444;18.560;2024-03-23T04:49:50;100076.41;;;11.54;60.75
28797;BME280;24974;54.444;18.560;2024-03-23T04:52:21;100083.69;;;11.11;61.38
28797;BME280;24974;54.444;18.560;2024-03-23T04:54:52;100082.66;;;11.33;61.45
28797;BME280;24974;54.444;18.560;2024-03-23T04:57:22;100081.78;;;11.03;62.28
28797;BME280;24974;54.444;18.560;2024-03-23T04:59:53;100084.91;;;10.50;63.63
28797;BME280;24974;54.444;18.560;2024-03-23T05:02:24;100085.63;;;11.19;61.51
28797;BME280;24974;54.444;18.560;2024-03-23T05:04:56;100087.69;;;11.23;61.36
28797;BME280;24974;54.444;18.560;2024-03-23T05:07:27;100094.31;;;11.68;60.50
28797;BME280;24974;54.444;18.560;2024-03-23T05:09:57;100082.63;;;11.42;60.87
28797;BME280;24974;54.444;18.560;2024-03-23T05:12:28;100079.00;;;11.97;59.77
28797;BME280;24974;54.444;18.560;2024-03-23T05:14:59;100080.47;;;11.56;60.61
28797;BME280;24974;54.444;18.560;2024-03-23T05:17:34;100074.50;;;10.99;62.20
28797;BME280;24974;54.444;18.560;2024-03-23T05:20:05;100068.38;;;12.08;59.37
28797;BME280;24974;54.444;18.560;2024-03-23T05:22:40;100068.56;;;11.82;60.01
28797;BME280;24974;54.444;18.560;2024-03-23T05:25:11;100073.78;;;11.66;61.14
28797;BME280;24974;54.444;18.560;2024-03-23T05:27:42;100067.88;;;11.08;61.46
28797;BME280;24974;54.444;18.560;2024-03-23T05:30:13;100072.47;;;11.72;60.41
28797;BME280;24974;54.444;18.560;2024-03-23T05:32:44;100071.31;;;11.73;60.08
28797;BME280;24974;54.444;18.560;2024-03-23T05:35:15;100067.94;;;11.29;61.40
28797;BME280;24974;54.444;18.560;2024-03-23T05:37:46;100072.47;;;11.72;59.82
28797;BME280;24974;54.444;18.560;2024-03-23T05:40:17;100065.00;;;11.81;59.69
28797;BME280;24974;54.444;18.560;2024-03-23T05:42:48;100061.75;;;11.41;60.50
28797;BME280;24974;54.444;18.560;2024-03-23T05:45:19;100053.47;;;11.79;60.01
28797;BME280;24974;54.444;18.560;2024-03-23T05:47:50;100044.13;;;11.42;60.69
28797;BME280;24974;54.444;18.560;2024-03-23T05:50:21;100041.56;;;11.66;60.12
28797;BME280;24974;54.444;18.560;2024-03-23T05:52:52;100037.75;;;12.09;58.76
28797;BME280;24974;54.444;18.560;2024-03-23T05:55:23;100036.94;;;12.09;58.19
28797;BME280;24974;54.444;18.560;2024-03-23T05:57:53;100038.63;;;12.01;58.60
28797;BME280;24974;54.444;18.560;2024-03-23T06:00:24;100032.59;;;12.28;57.69
28797;BME280;24974;54.444;18.560;2024-03-23T06:02:56;100044.88;;;12.10;58.21
28797;BME280;24974;54.444;18.560;2024-03-23T06:05:28;100041.84;;;12.24;58.52
28797;BME280;24974;54.444;18.560;2024-03-23T06:07:59;100038.41;;;12.48;57.44
28797;BME280;24974;54.444;18.560;2024-03-23T06:10:29;100042.22;;;12.88;56.43
28797;BME280;24974;54.444;18.560;2024-03-23T06:13:00;100036.84;;;12.59;57.12
28797;BME280;24974;54.444;18.560;2024-03-23T06:15:31;100037.69;;;11.97;58.28
28797;BME280;24974;54.444;18.560;2024-03-23T06:18:02;100040.47;;;12.51;57.31
28797;BME280;24974;54.444;18.560;2024-03-23T06:20:34;100033.84;;;12.31;57.07
28797;BME280;24974;54.444;18.560;2024-03-23T06:23:05;100036.69;;;12.76;56.67
28797;BME280;24974;54.444;18.560;2024-03-23T06:25:36;100023.72;;;12.23;56.91
28797;BME280;24974;54.444;18.560;2024-03-23T06:28:07;100035.72;;;12.18;57.65
28797;BME280;24974;54.444;18.560;2024-03-23T06:30:37;100026.28;;;11.48;59.09
28797;BME280;24974;54.444;18.560;2024-03-23T06:33:08;100024.84;;;11.80;58.47
28797;BME280;24974;54.444;18.560;2024-03-23T06:35:39;100017.44;;;11.93;58.27
28797;BME280;24974;54.444;18.560;2024-03-23T06:38:11;100025.31;;;11.06;60.17
28797;BME280;24974;54.444;18.560;2024-03-23T06:40:42;100026.34;;;12.19;58.10
28797;BME280;24974;54.444;18.560;2024-03-23T06:43:15;100024.78;;;12.10;57.83
28797;BME280;24974;54.444;18.560;2024-03-23T06:45:53;100021.75;;;12.44;56.63
28797;BME280;24974;54.444;18.560;2024-03-23T06:48:24;100019.53;;;12.71;55.26
28797;BME280;24974;54.444;18.560;2024-03-23T06:50:56;100021.53;;;11.87;57.99
28797;BME280;24974;54.444;18.560;2024-03-23T06:53:27;100019.06;;;12.15;57.17
28797;BME280;24974;54.444;18.560;2024-03-23T06:55:58;100025.25;;;12.32;56.85
28797;BME280;24974;54.444;18.560;2024-03-23T06:58:29;100026.06;;;12.66;55.91
28797;BME280;24974;54.444;18.560;2024-03-23T07:01:00;100029.00;;;11.86;57.99
28797;BME280;24974;54.444;18.560;2024-03-23T07:03:31;100020.16;;;12.88;55.82
28797;BME280;24974;54.444;18.560;2024-03-23T07:06:02;100031.34;;;13.04;55.07
28797;BME280;24974;54.444;18.560;2024-03-23T07:08:33;100034.78;;;12.35;56.98
28797;BME280;24974;54.444;18.560;2024-03-23T07:11:04;100041.81;;;12.66;56.49
28797;BME280;24974;54.444;18.560;2024-03-23T07:13:35;100034.34;;;13.11;54.56
28797;BME280;24974;54.444;18.560;2024-03-23T07:16:06;100033.34;;;13.16;54.06
28797;BME280;24974;54.444;18.560;2024-03-23T07:18:37;100025.72;;;12.35;56.31
28797;BME280;24974;54.444;18.560;2024-03-23T07:21:08;100033.25;;;11.75;57.53
28797;BME280;24974;54.444;18.560;2024-03-23T07:23:42;100035.19;;;11.83;57.63
28797;BME280;24974;54.444;18.560;2024-03-23T07:26:15;100032.59;;;11.10;59.38
28797;BME280;24974;54.444;18.560;2024-03-23T07:28:46;100035.31;;;11.57;58.39
28797;BME280;24974;54.444;18.560;2024-03-23T07:31:17;100032.31;;;11.41;58.95
28797;BME280;24974;54.444;18.560;2024-03-23T07:33:48;100033.59;;;12.90;54.93
28797;BME280;24974;54.444;18.560;2024-03-23T07:36:19;100026.47;;;11.72;57.56
28797;BME280;24974;54.444;18.560;2024-03-23T07:38:50;100025.31;;;12.03;57.02
28797;BME280;24974;54.444;18.560;2024-03-23T07:41:21;100021.28;;;12.75;55.46
28797;BME280;24974;54.444;18.560;2024-03-23T07:43:53;100020.06;;;12.31;56.10
28797;BME280;24974;54.444;18.560;2024-03-23T07:46:24;100010.69;;;12.11;55.93
28797;BME280;24974;54.444;18.560;2024-03-23T07:48:55;100007.50;;;11.12;58.35
28797;BME280;24974;54.444;18.560;2024-03-23T07:51:26;100002.69;;;11.68;57.10
28797;BME280;24974;54.444;18.560;2024-03-23T07:53:57;100013.09;;;11.33;58.62
28797;BME280;24974;54.444;18.560;2024-03-23T07:56:28;100003.69;;;11.34;58.63
28797;BME280;24974;54.444;18.560;2024-03-23T07:58:59;100010.53;;;12.28;56.14
28797;BME280;24974;54.444;18.560;2024-03-23T08:01:29;100003.16;;;12.99;54.39
28797;BME280;24974;54.444;18.560;2024-03-23T08:04:00;100001.47;;;13.06;54.31
28797;BME280;24974;54.444;18.560;2024-03-23T08:06:32;100005.31;;;13.26;54.16
28797;BME280;24974;54.444;18.560;2024-03-23T08:09:02;100000.66;;;13.06;54.25
28797;BME280;24974;54.444;18.560;2024-03-23T08:11:33;100007.00;;;12.61;55.44
28797;BME280;24974;54.444;18.560;2024-03-23T08:14:08;100010.50;;;13.52;53.19
28797;BME280;24974;54.444;18.560;2024-03-23T08:16:40;100008.41;;;12.13;56.06
28797;BME280;24974;54.444;18.560;2024-03-23T08:19:12;100007.66;;;12.58;55.53
28797;BME280;24974;54.444;18.560;2024-03-23T08:21:42;100002.22;;;12.82;55.19
28797;BME280;24974;54.444;18.560;2024-03-23T08:24:13;99993.97;;;12.49;55.55
28797;BME280;24974;54.444;18.560;2024-03-23T08:26:44;99984.09;;;13.06;54.57
28797;BME280;24974;54.444;18.560;2024-03-23T08:29:15;99978.34;;;12.86;54.16
28797;BME280;24974;54.444;18.560;2024-03-23T08:31:45;99982.06;;;12.57;54.75
28797;BME280;24974;54.444;18.560;2024-03-23T08:34:16;99975.00;;;12.15;55.17
28797;BME280;24974;54.444;18.560;2024-03-23T08:36:47;99972.94;;;12.78;54.45
28797;BME280;24974;54.444;18.560;2024-03-23T08:39:18;99971.38;;;12.56;54.95
28797;BME280;24974;54.444;18.560;2024-03-23T08:41:50;99970.22;;;12.24;55.88
28797;BME280;24974;54.444;18.560;2024-03-23T08:44:21;99970.06;;;12.86;54.07
28797;BME280;24974;54.444;18.560;2024-03-23T08:46:52;99969.44;;;13.51;52.45
28797;BME280;24974;54.444;18.560;2024-03-23T08:49:26;99968.53;;;12.65;53.93
28797;BME280;24974;54.444;18.560;2024-03-23T08:51:56;99965.75;;;12.65;55.27
28797;BME280;24974;54.444;18.560;2024-03-23T08:54:27;99959.69;;;12.05;56.07
28797;BME280;24974;54.444;18.560;2024-03-23T08:56:59;99956.41;;;12.45;55.47
28797;BME280;24974;54.444;18.560;2024-03-23T08:59:30;99954.53;;;13.92;52.17
28797;BME280;24974;54.444;18.560;2024-03-23T09:02:01;99957.66;;;12.80;54.40
28797;BME280;24974;54.444;18.560;2024-03-23T09:04:32;99957.34;;;13.19;52.74
28797;BME280;24974;54.444;18.560;2024-03-23T09:07:03;99943.63;;;11.86;55.52
28797;BME280;24974;54.444;18.560;2024-03-23T09:09:34;99941.38;;;11.88;56.15
28797;BME280;24974;54.444;18.560;2024-03-23T09:12:05;99945.00;;;12.34;54.51
28797;BME280;24974;54.444;18.560;2024-03-23T09:14:36;99937.94;;;13.39;52.00
28797;BME280;24974;54.444;18.560;2024-03-23T09:17:07;99931.81;;;12.40;53.70
28797;BME280;24974;54.444;18.560;2024-03-23T09:19:38;99932.97;;;12.84;53.57
28797;BME280;24974;54.444;18.560;2024-03-23T09:22:10;99938.94;;;13.59;51.38
28797;BME280;24974;54.444;18.560;2024-03-23T09:24:41;99925.47;;;12.60;53.82
28797;BME280;24974;54.444;18.560;2024-03-23T09:27:12;99920.88;;;12.88;51.39
28797;BME280;24974;54.444;18.560;2024-03-23T09:29:42;99929.97;;;12.77;52.43
28797;BME280;24974;54.444;18.560;2024-03-23T09:32:13;99928.91;;;12.03;53.41
28797;BME280;24974;54.444;18.560;2024-03-23T09:34:44;99912.31;;;12.45;52.77
28797;BME280;24974;54.444;18.560;2024-03-23T09:37:15;99921.75;;;12.44;52.24
28797;BME280;24974;54.444;18.560;2024-03-23T09:39:46;99912.09;;;12.04;53.17
28797;BME280;24974;54.444;18.560;2024-03-23T09:42:16;99915.72;;;12.99;52.00
28797;BME280;24974;54.444;18.560;2024-03-23T09:44:48;99906.22;;;13.33;50.99
28797;BME280;24974;54.444;18.560;2024-03-23T09:47:21;99906.47;;;12.46;53.68
28797;BME280;24974;54.444;18.560;2024-03-23T09:49:52;99907.34;;;12.83;52.39
28797;BME280;24974;54.444;18.560;2024-03-23T09:52:24;99906.47;;;13.68;50.16
28797;BME280;24974;54.444;18.560;2024-03-23T09:54:55;99905.59;;;13.52;50.26
28797;BME280;24974;54.444;18.560;2024-03-23T09:57:26;99912.19;;;13.35;50.10
28797;BME280;24974;54.444;18.560;2024-03-23T09:59:57;99896.94;;;13.66;50.04
28797;BME280;24974;54.444;18.560;2024-03-23T10:02:29;99902.16;;;12.94;52.13
28797;BME280;24974;54.444;18.560;2024-03-23T10:05:00;99903.88;;;13.11;51.56
28797;BME280;24974;54.444;18.560;2024-03-23T10:07:31;99892.44;;;14.30;48.73
28797;BME280;24974;54.444;18.560;2024-03-23T10:10:10;99888.88;;;14.01;49.79
28797;BME280;24974;54.444;18.560;2024-03-23T10:12:46;99888.19;;;15.27;47.08
28797;BME280;24974;54.444;18.560;2024-03-23T10:15:25;99894.47;;;14.61;47.89
28797;BME280;24974;54.444;18.560;2024-03-23T10:17:56;99891.13;;;13.83;49.24
28797;BME280;24974;54.444;18.560;2024-03-23T10:20:27;99894.78;;;12.74;52.29
28797;BME280;24974;54.444;18.560;2024-03-23T10:22:58;99898.38;;;13.35;51.20
28797;BME280;24974;54.444;18.560;2024-03-23T10:25:29;99887.72;;;13.74;50.50
28797;BME280;24974;54.444;18.560;2024-03-23T10:28:00;99893.53;;;12.26;53.02
28797;BME280;24974;54.444;18.560;2024-03-23T10:30:32;99890.91;;;12.87;50.89
28797;BME280;24974;54.444;18.560;2024-03-23T10:33:09;99884.00;;;12.81;51.35
28797;BME280;24974;54.444;18.560;2024-03-23T10:35:41;99875.13;;;13.49;49.05
28797;BME280;24974;54.444;18.560;2024-03-23T10:38:12;99866.78;;;13.73;49.33
28797;BME280;24974;54.444;18.560;2024-03-23T10:40:44;99865.63;;;13.74;48.78
28797;BME280;24974;54.444;18.560;2024-03-23T10:43:15;99867.00;;;12.91;51.35
28797;BME280;24974;54.444;18.560;2024-03-23T10:45:49;99849.19;;;13.93;48.85
28797;BME280;24974;54.444;18.560;2024-03-23T10:48:20;99858.09;;;14.15;48.83
28797;BME280;24974;54.444;18.560;2024-03-23T10:50:51;99862.00;;;14.58;48.66
28797;BME280;24974;54.444;18.560;2024-03-23T10:53:25;99857.22;;;13.30;51.35
28797;BME280;24974;54.444;18.560;2024-03-23T10:55:57;99848.72;;;12.74;51.69
28797;BME280;24974;54.444;18.560;2024-03-23T10:58:37;99847.50;;;14.33;48.38
28797;BME280;24974;54.444;18.560;2024-03-23T11:01:12;99858.16;;;13.22;50.24
28797;BME280;24974;54.444;18.560;2024-03-23T11:03:47;99854.59;;;13.74;49.37
28797;BME280;24974;54.444;18.560;2024-03-23T11:06:37;99851.56;;;13.79;48.93
28797;BME280;24974;54.444;18.560;2024-03-23T11:12:28;99856.09;;;13.99;48.83
28797;BME280;24974;54.444;18.560;2024-03-23T11:15:11;99845.38;;;13.70;48.73
28797;BME280;24974;54.444;18.560;2024-03-23T11:18:06;99846.63;;;14.44;47.20
28797;BME280;24974;54.444;18.560;2024-03-23T11:20:38;99843.63;;;14.49;46.60
28797;BME280;24974;54.444;18.560;2024-03-23T11:23:27;99840.44;;;13.63;47.24
28797;BME280;24974;54.444;18.560;2024-03-23T11:25:58;99834.63;;;14.09;46.48
28797;BME280;24974;54.444;18.560;2024-03-23T11:28:30;99829.91;;;14.25;46.20
28797;BME280;24974;54.444;18.560;2024-03-23T11:31:01;99825.41;;;14.64;45.91
28797;BME280;24974;54.444;18.560;2024-03-23T11:33:32;99827.38;;;14.64;45.26
28797;BME280;24974;54.444;18.560;2024-03-23T11:36:03;99825.53;;;14.52;45.36
28797;BME280;24974;54.444;18.560;2024-03-23T11:38:36;99820.91;;;15.42;43.49
28797;BME280;24974;54.444;18.560;2024-03-23T11:41:08;99815.28;;;14.09;46.21
28797;BME280;24974;54.444;18.560;2024-03-23T11:43:38;99807.56;;;14.77;45.10
28797;BME280;24974;54.444;18.560;2024-03-23T11:46:09;99812.56;;;14.88;44.84
28797;BME280;24974;54.444;18.560;2024-03-23T11:48:40;99817.38;;;14.59;45.64
28797;BME280;24974;54.444;18.560;2024-03-23T11:51:11;99810.22;;;14.26;46.21
28797;BME280;24974;54.444;18.560;2024-03-23T11:53:42;99817.34;;;14.43;44.75
28797;BME280;24974;54.444;18.560;2024-03-23T11:56:13;99818.25;;;15.30;43.35
28797;BME280;24974;54.444;18.560;2024-03-23T11:58:44;99816.84;;;15.75;43.40
28797;BME280;24974;54.444;18.560;2024-03-23T12:01:15;99800.00;;;15.09;46.86
28797;BME280;24974;54.444;18.560;2024-03-23T12:03:46;99813.97;;;15.52;46.78
28797;BME280;24974;54.444;18.560;2024-03-23T12:06:19;99805.78;;;15.39;46.26
28797;BME280;24974;54.444;18.560;2024-03-23T12:08:51;99798.84;;;15.10;47.44
28797;BME280;24974;54.444;18.560;2024-03-23T12:11:21;99789.91;;;15.36;46.89
28797;BME280;24974;54.444;18.560;2024-03-23T12:13:53;99784.59;;;15.08;47.05
28797;BME280;24974;54.444;18.560;2024-03-23T12:16:30;99783.09;;;14.95;47.93
28797;BME280;24974;54.444;18.560;2024-03-23T12:19:05;99780.81;;;14.66;48.60
28797;BME280;24974;54.444;18.560;2024-03-23T12:21:36;99776.19;;;14.38;49.75
28797;BME280;24974;54.444;18.560;2024-03-23T12:24:07;99777.34;;;13.78;50.77
28797;BME280;24974;54.444;18.560;2024-03-23T12:26:38;99776.06;;;14.19;49.67
28797;BME280;24974;54.444;18.560;2024-03-23T12:29:10;99770.47;;;14.31;48.90
28797;BME280;24974;54.444;18.560;2024-03-23T12:31:41;99775.28;;;14.34;49.17
28797;BME280;24974;54.444;18.560;2024-03-23T12:34:12;99769.31;;;14.64;47.50
28797;BME280;24974;54.444;18.560;2024-03-23T12:36:42;99765.56;;;14.56;48.44
28797;BME280;24974;54.444;18.560;2024-03-23T12:39:13;99757.41;;;15.14;46.75
28797;BME280;24974;54.444;18.560;2024-03-23T12:41:44;99756.22;;;14.96;47.57
28797;BME280;24974;54.444;18.560;2024-03-23T12:44:15;99758.97;;;14.45;47.62
28797;BME280;24974;54.444;18.560;2024-03-23T12:46:46;99760.53;;;15.13;46.91
28797;BME280;24974;54.444;18.560;2024-03-23T12:49:17;99752.28;;;14.14;48.87
28797;BME280;24974;54.444;18.560;2024-03-23T12:51:54;99751.13;;;14.47;47.87
28797;BME280;24974;54.444;18.560;2024-03-23T12:54:26;99750.69;;;14.61;47.21
28797;BME280;24974;54.444;18.560;2024-03-23T12:56:56;99745.59;;;14.63;47.19
28797;BME280;24974;54.444;18.560;2024-03-23T12:59:28;99739.00;;;14.51;48.06
28797;BME280;24974;54.444;18.560;2024-03-23T13:01:58;99743.97;;;14.77;48.43
28797;BME280;24974;54.444;18.560;2024-03-23T13:04:29;99733.91;;;13.90;50.50
28797;BME280;24974;54.444;18.560;2024-03-23T13:07:00;99729.59;;;13.77;51.75
28797;BME280;24974;54.444;18.560;2024-03-23T13:09:31;99732.16;;;13.26;52.28
28797;BME280;24974;54.444;18.560;2024-03-23T13:12:02;99730.66;;;12.40;55.20
28797;BME280;24974;54.444;18.560;2024-03-23T13:14:33;99735.78;;;11.05;59.06
28797;BME280;24974;54.444;18.560;2024-03-23T13:17:04;99743.06;;;11.64;57.13
28797;BME280;24974;54.444;18.560;2024-03-23T13:19:35;99741.81;;;12.68;54.54
28797;BME280;24974;54.444;18.560;2024-03-23T13:22:06;99740.66;;;12.56;56.81
28797;BME280;24974;54.444;18.560;2024-03-23T13:24:38;99737.28;;;13.00;53.69
28797;BME280;24974;54.444;18.560;2024-03-23T13:27:09;99755.28;;;13.93;54.47
28797;BME280;24974;54.444;18.560;2024-03-23T13:29:41;99752.28;;;14.14;51.80
28797;BME280;24974;54.444;18.560;2024-03-23T13:32:12;99752.34;;;14.34;50.84
28797;BME280;24974;54.444;18.560;2024-03-23T13:34:42;99761.56;;;12.57;53.74
28797;BME280;24974;54.444;18.560;2024-03-23T13:37:13;99757.88;;;12.78;53.65
28797;BME280;24974;54.444;18.560;2024-03-23T13:39:44;99759.25;;;12.35;54.84
28797;BME280;24974;54.444;18.560;2024-03-23T13:42:15;99756.81;;;12.82;54.02
28797;BME280;24974;54.444;18.560;2024-03-23T13:44:46;99749.03;;;12.72;53.80
28797;BME280;24974;54.444;18.560;2024-03-23T13:47:17;99741.47;;;12.45;54.91
28797;BME280;24974;54.444;18.560;2024-03-23T13:49:48;99751.00;;;13.12;52.97
28797;BME280;24974;54.444;18.560;2024-03-23T13:52:19;99748.44;;;12.06;55.50
28797;BME280;24974;54.444;18.560;2024-03-23T13:54:53;99754.75;;;12.06;55.27
28797;BME280;24974;54.444;18.560;2024-03-23T13:57:24;99761.41;;;12.05;56.07
28797;BME280;24974;54.444;18.560;2024-03-23T13:59:56;99756.22;;;11.91;56.63
28797;BME280;24974;54.444;18.560;2024-03-23T14:02:28;99759.91;;;11.95;56.71
28797;BME280;24974;54.444;18.560;2024-03-23T14:05:01;99760.38;;;12.10;55.72